sensor_id;sensor_type;location;lat;lon;timestamp;temperature;humidity
13328;DHT22;6733;51.044;3.746;2022-07-17T00:00:19;16.50;99.90
13328;DHT22;6733;51.044;3.746;2022-07-17T00:02:45;16.40;99.90
13328;DHT22;6733;51.044;3.746;2022-07-17T00:05:14;16.40;99.90
13328;DHT22;6733;51.044;3.746;2022-07-17T00:07:40;16.40;99.90
13328;DHT22;6733;51.044;3.746;2022-07-17T00:10:07;16.30;99.90
13328;DHT22;6733;51.044;3.746;2022-07-17T00:12:34;16.30;99.90
13328;DHT22;6733;51.044;3.746;2022-07-17T00:15:00;16.30;99.90
13328;DHT22;6733;51.044;3.746;2022-07-17T00:17:26;16.30;99.90
13328;DHT22;6733;51.044;3.746;2022-07-17T00:19:52;16.40;99.90
13328;DHT22;6733;51.044;3.746;2022-07-17T00:22:19;16.40;99.90
13328;DHT22;6733;51.044;3.746;2022-07-17T00:24:46;16.30;99.90
13328;DHT22;6733;51.044;3.746;2022-07-17T00:27:12;16.30;99.90
13328;DHT22;6733;51.044;3.746;2022-07-17T00:29:39;16.20;99.90
13328;DHT22;6733;51.044;3.746;2022-07-17T00:32:05;16.10;99.90
13328;DHT22;6733;51.044;3.746;2022-07-17T00:34:31;16.10;99.90
13328;DHT22;6733;51.044;3.746;2022-07-17T00:36:58;16.10;99.90
13328;DHT22;6733;51.044;3.746;2022-07-17T00:39:24;16.00;99.90
13328;DHT22;6733;51.044;3.746;2022-07-17T00:41:50;16.00;99.90
13328;DHT22;6733;51.044;3.746;2022-07-17T00:44:16;16.00;99.90
13328;DHT22;6733;51.044;3.746;2022-07-17T00:46:42;16.00;99.90
13328;DHT22;6733;51.044;3.746;2022-07-17T00:49:09;15.90;99.90
13328;DHT22;6733;51.044;3.746;2022-07-17T00:51:35;16.00;99.90
13328;DHT22;6733;51.044;3.746;2022-07-17T00:54:02;15.90;99.90
13328;DHT22;6733;51.044;3.746;2022-07-17T00:56:29;16.00;99.90
13328;DHT22;6733;51.044;3.746;2022-07-17T00:58:56;16.00;99.90
13328;DHT22;6733;51.044;3.746;2022-07-17T01:01:22;16.00;99.90
13328;DHT22;6733;51.044;3.746;2022-07-17T01:03:48;15.90;99.90
13328;DHT22;6733;51.044;3.746;2022-07-17T01:06:14;15.90;99.90
13328;DHT22;6733;51.044;3.746;2022-07-17T01:08:40;15.80;99.90
13328;DHT22;6733;51.044;3.746;2022-07-17T01:11:08;15.80;99.90
13328;DHT22;6733;51.044;3.746;2022-07-17T01:13:35;15.80;99.90
13328;DHT22;6733;51.044;3.746;2022-07-17T01:16:01;15.70;99.90
13328;DHT22;6733;51.044;3.746;2022-07-17T01:18:27;15.70;99.90
13328;DHT22;6733;51.044;3.746;2022-07-17T01:20:53;15.60;99.90
13328;DHT22;6733;51.044;3.746;2022-07-17T01:23:20;15.60;99.90
13328;DHT22;6733;51.044;3.746;2022-07-17T01:25:46;15.60;99.90
13328;DHT22;6733;51.044;3.746;2022-07-17T01:28:13;15.50;99.90
13328;DHT22;6733;51.044;3.746;2022-07-17T01:30:48;15.50;99.90
13328;DHT22;6733;51.044;3.746;2022-07-17T01:33:14;15.50;99.90
13328;DHT22;6733;51.044;3.746;2022-07-17T01:35:41;15.40;99.90
13328;DHT22;6733;51.044;3.746;2022-07-17T01:38:07;15.40;99.90
13328;DHT22;6733;51.044;3.746;2022-07-17T01:40:34;15.40;99.90
13328;DHT22;6733;51.044;3.746;2022-07-17T01:43:01;15.30;99.90
13328;DHT22;6733;51.044;3.746;2022-07-17T01:45:27;15.30;99.90
13328;DHT22;6733;51.044;3.746;2022-07-17T01:47:53;15.30;99.90
13328;DHT22;6733;51.044;3.746;2022-07-17T01:50:19;15.30;99.90
13328;DHT22;6733;51.044;3.746;2022-07-17T01:52:46;15.30;99.90
13328;DHT22;6733;51.044;3.746;2022-07-17T01:55:14;15.20;99.90
13328;DHT22;6733;51.044;3.746;2022-07-17T01:57:41;15.20;99.90
13328;DHT22;6733;51.044;3.746;2022-07-17T02:00:11;15.20;99.90
13328;DHT22;6733;51.044;3.746;2022-07-17T02:02:37;15.10;99.90
13328;DHT22;6733;51.044;3.746;2022-07-17T02:05:04;15.10;99.90
13328;DHT22;6733;51.044;3.746;2022-07-17T02:07:30;15.10;99.90
13328;DHT22;6733;51.044;3.746;2022-07-17T02:09:58;15.10;99.90
13328;DHT22;6733;51.044;3.746;2022-07-17T02:12:24;15.10;99.90
13328;DHT22;6733;51.044;3.746;2022-07-17T02:14:50;15.10;99.90
13328;DHT22;6733;51.044;3.746;2022-07-17T02:17:16;15.00;99.90
13328;DHT22;6733;51.044;3.746;2022-07-17T02:19:42;15.00;99.90
13328;DHT22;6733;51.044;3.746;2022-07-17T02:22:08;15.00;99.90
13328;DHT22;6733;51.044;3.746;2022-07-17T02:24:34;14.90;99.90
13328;DHT22;6733;51.044;3.746;2022-07-17T02:27:00;14.90;99.90
13328;DHT22;6733;51.044;3.746;2022-07-17T02:29:26;14.80;99.90
13328;DHT22;6733;51.044;3.746;2022-07-17T02:31:53;14.80;99.90
13328;DHT22;6733;51.044;3.746;2022-07-17T02:34:25;14.80;99.90
13328;DHT22;6733;51.044;3.746;2022-07-17T02:36:51;14.80;99.90
13328;DHT22;6733;51.044;3.746;2022-07-17T02:39:24;14.80;99.90
13328;DHT22;6733;51.044;3.746;2022-07-17T02:41:50;14.80;99.90
13328;DHT22;6733;51.044;3.746;2022-07-17T02:44:19;14.70;99.90
13328;DHT22;6733;51.044;3.746;2022-07-17T02:46:46;14.60;99.90
13328;DHT22;6733;51.044;3.746;2022-07-17T02:49:12;14.60;99.90
13328;DHT22;6733;51.044;3.746;2022-07-17T02:51:38;14.60;99.90
13328;DHT22;6733;51.044;3.746;2022-07-17T02:54:04;14.60;99.90
13328;DHT22;6733;51.044;3.746;2022-07-17T02:56:30;14.60;99.90
13328;DHT22;6733;51.044;3.746;2022-07-17T02:58:56;14.50;99.90
13328;DHT22;6733;51.044;3.746;2022-07-17T03:01:22;14.50;99.90
13328;DHT22;6733;51.044;3.746;2022-07-17T03:03:49;14.40;99.90
13328;DHT22;6733;51.044;3.746;2022-07-17T03:06:15;14.40;99.90
13328;DHT22;6733;51.044;3.746;2022-07-17T03:08:41;14.40;99.90
13328;DHT22;6733;51.044;3.746;2022-07-17T03:11:07;14.50;99.90
13328;DHT22;6733;51.044;3.746;2022-07-17T03:13:33;14.50;99.90
13328;DHT22;6733;51.044;3.746;2022-07-17T03:15:59;14.50;99.90
13328;DHT22;6733;51.044;3.746;2022-07-17T03:18:26;14.50;99.90
13328;DHT22;6733;51.044;3.746;2022-07-17T03:20:52;14.40;99.90
13328;DHT22;6733;51.044;3.746;2022-07-17T03:23:18;14.40;99.90
13328;DHT22;6733;51.044;3.746;2022-07-17T03:25:44;14.40;99.90
13328;DHT22;6733;51.044;3.746;2022-07-17T03:28:10;14.40;99.90
13328;DHT22;6733;51.044;3.746;2022-07-17T03:30:37;14.40;99.90
13328;DHT22;6733;51.044;3.746;2022-07-17T03:33:06;14.40;99.90
13328;DHT22;6733;51.044;3.746;2022-07-17T03:35:35;14.40;99.90
13328;DHT22;6733;51.044;3.746;2022-07-17T03:38:01;14.40;99.90
13328;DHT22;6733;51.044;3.746;2022-07-17T03:40:27;14.40;99.90
13328;DHT22;6733;51.044;3.746;2022-07-17T03:42:53;14.30;99.90
13328;DHT22;6733;51.044;3.746;2022-07-17T03:45:19;14.20;99.90
13328;DHT22;6733;51.044;3.746;2022-07-17T03:47:45;14.30;99.90
13328;DHT22;6733;51.044;3.746;2022-07-17T03:50:12;14.20;99.90
13328;DHT22;6733;51.044;3.746;2022-07-17T03:52:38;14.20;99.90
13328;DHT22;6733;51.044;3.746;2022-07-17T03:55:04;14.30;99.90
13328;DHT22;6733;51.044;3.746;2022-07-17T03:57:30;14.30;99.90
13328;DHT22;6733;51.044;3.746;2022-07-17T03:59:57;14.20;99.90
13328;DHT22;6733;51.044;3.746;2022-07-17T04:02:23;14.20;99.90
13328;DHT22;6733;51.044;3.746;2022-07-17T04:04:49;14.30;99.90
13328;DHT22;6733;51.044;3.746;2022-07-17T04:07:15;14.30;99.90
13328;DHT22;6733;51.044;3.746;2022-07-17T04:09:58;14.30;99.90
13328;DHT22;6733;51.044;3.746;2022-07-17T04:12:25;14.40;99.90
13328;DHT22;6733;51.044;3.746;2022-07-17T04:14:52;14.40;99.90
13328;DHT22;6733;51.044;3.746;2022-07-17T04:17:18;14.30;99.90
13328;DHT22;6733;51.044;3.746;2022-07-17T04:19:44;14.30;99.90
13328;DHT22;6733;51.044;3.746;2022-07-17T04:22:10;14.30;99.90
13328;DHT22;6733;51.044;3.746;2022-07-17T04:24:36;14.30;99.90
13328;DHT22;6733;51.044;3.746;2022-07-17T04:27:03;14.30;99.90
13328;DHT22;6733;51.044;3.746;2022-07-17T04:29:29;14.20;99.90
13328;DHT22;6733;51.044;3.746;2022-07-17T04:31:55;14.30;99.90
13328;DHT22;6733;51.044;3.746;2022-07-17T04:34:21;14.20;99.90
13328;DHT22;6733;51.044;3.746;2022-07-17T04:36:47;14.20;99.90
13328;DHT22;6733;51.044;3.746;2022-07-17T04:39:14;14.30;99.90
13328;DHT22;6733;51.044;3.746;2022-07-17T04:41:40;14.30;99.90
13328;DHT22;6733;51.044;3.746;2022-07-17T04:44:06;14.40;99.90
13328;DHT22;6733;51.044;3.746;2022-07-17T04:46:32;14.50;99.90
13328;DHT22;6733;51.044;3.746;2022-07-17T04:48:58;14.50;99.90
13328;DHT22;6733;51.044;3.746;2022-07-17T04:51:24;14.60;99.90
13328;DHT22;6733;51.044;3.746;2022-07-17T04:53:51;14.60;99.90
13328;DHT22;6733;51.044;3.746;2022-07-17T04:56:17;14.60;99.90
13328;DHT22;6733;51.044;3.746;2022-07-17T04:58:43;14.70;99.90
13328;DHT22;6733;51.044;3.746;2022-07-17T05:01:09;14.70;99.90
13328;DHT22;6733;51.044;3.746;2022-07-17T05:03:35;14.70;99.90
13328;DHT22;6733;51.044;3.746;2022-07-17T05:06:03;14.80;99.90
13328;DHT22;6733;51.044;3.746;2022-07-17T05:08:30;14.90;99.90
13328;DHT22;6733;51.044;3.746;2022-07-17T05:10:56;14.90;99.90
13328;DHT22;6733;51.044;3.746;2022-07-17T05:13:22;15.00;99.90
13328;DHT22;6733;51.044;3.746;2022-07-17T05:15:48;15.00;99.90
13328;DHT22;6733;51.044;3.746;2022-07-17T05:18:15;15.10;99.90
13328;DHT22;6733;51.044;3.746;2022-07-17T05:20:41;15.10;99.90
13328;DHT22;6733;51.044;3.746;2022-07-17T05:23:08;15.10;99.90
13328;DHT22;6733;51.044;3.746;2022-07-17T05:25:34;15.20;99.90
13328;DHT22;6733;51.044;3.746;2022-07-17T05:28:00;15.30;99.90
13328;DHT22;6733;51.044;3.746;2022-07-17T05:30:28;15.30;99.90
13328;DHT22;6733;51.044;3.746;2022-07-17T05:32:54;15.30;99.90
13328;DHT22;6733;51.044;3.746;2022-07-17T05:35:20;15.40;99.90
13328;DHT22;6733;51.044;3.746;2022-07-17T05:37:46;15.50;99.90
13328;DHT22;6733;51.044;3.746;2022-07-17T05:40:12;15.50;99.90
13328;DHT22;6733;51.044;3.746;2022-07-17T05:42:39;15.70;99.90
13328;DHT22;6733;51.044;3.746;2022-07-17T05:45:05;15.80;99.90
13328;DHT22;6733;51.044;3.746;2022-07-17T05:47:31;15.90;99.90
13328;DHT22;6733;51.044;3.746;2022-07-17T05:49:57;16.00;99.90
13328;DHT22;6733;51.044;3.746;2022-07-17T05:52:24;16.10;99.90
13328;DHT22;6733;51.044;3.746;2022-07-17T05:54:50;16.10;99.90
13328;DHT22;6733;51.044;3.746;2022-07-17T05:57:16;16.10;99.90
13328;DHT22;6733;51.044;3.746;2022-07-17T05:59:42;16.10;99.90
13328;DHT22;6733;51.044;3.746;2022-07-17T06:02:09;16.40;99.90
13328;DHT22;6733;51.044;3.746;2022-07-17T06:04:35;16.60;99.90
13328;DHT22;6733;51.044;3.746;2022-07-17T06:07:01;16.60;99.90
13328;DHT22;6733;51.044;3.746;2022-07-17T06:09:27;16.60;99.90
13328;DHT22;6733;51.044;3.746;2022-07-17T06:11:53;16.70;99.90
13328;DHT22;6733;51.044;3.746;2022-07-17T06:14:19;16.80;99.90
13328;DHT22;6733;51.044;3.746;2022-07-17T06:16:46;16.90;99.90
13328;DHT22;6733;51.044;3.746;2022-07-17T06:19:12;17.10;99.90
13328;DHT22;6733;51.044;3.746;2022-07-17T06:21:38;17.10;99.90
13328;DHT22;6733;51.044;3.746;2022-07-17T06:24:04;17.20;99.90
13328;DHT22;6733;51.044;3.746;2022-07-17T06:26:30;17.30;99.90
13328;DHT22;6733;51.044;3.746;2022-07-17T06:28:56;17.50;99.90
13328;DHT22;6733;51.044;3.746;2022-07-17T06:31:23;17.50;99.90
13328;DHT22;6733;51.044;3.746;2022-07-17T06:33:49;17.60;99.90
13328;DHT22;6733;51.044;3.746;2022-07-17T06:36:15;17.60;99.90
13328;DHT22;6733;51.044;3.746;2022-07-17T06:38:41;17.60;99.90
13328;DHT22;6733;51.044;3.746;2022-07-17T06:41:07;17.90;99.90
13328;DHT22;6733;51.044;3.746;2022-07-17T06:43:33;17.90;99.90
13328;DHT22;6733;51.044;3.746;2022-07-17T06:45:59;18.10;99.90
13328;DHT22;6733;51.044;3.746;2022-07-17T06:48:26;18.10;99.90
13328;DHT22;6733;51.044;3.746;2022-07-17T06:50:52;18.30;99.90
13328;DHT22;6733;51.044;3.746;2022-07-17T06:53:18;18.50;99.90
13328;DHT22;6733;51.044;3.746;2022-07-17T06:55:44;18.60;99.90
13328;DHT22;6733;51.044;3.746;2022-07-17T06:58:10;18.60;99.90
13328;DHT22;6733;51.044;3.746;2022-07-17T07:00:38;18.60;99.90
13328;DHT22;6733;51.044;3.746;2022-07-17T07:03:04;18.90;99.90
13328;DHT22;6733;51.044;3.746;2022-07-17T07:05:31;18.80;99.90
13328;DHT22;6733;51.044;3.746;2022-07-17T07:07:57;18.90;99.90
13328;DHT22;6733;51.044;3.746;2022-07-17T07:10:23;19.10;99.90
13328;DHT22;6733;51.044;3.746;2022-07-17T07:12:49;19.20;99.90
13328;DHT22;6733;51.044;3.746;2022-07-17T07:15:15;19.10;99.90
13328;DHT22;6733;51.044;3.746;2022-07-17T07:17:41;19.40;99.90
13328;DHT22;6733;51.044;3.746;2022-07-17T07:20:08;19.50;99.90
13328;DHT22;6733;51.044;3.746;2022-07-17T07:22:35;19.30;99.90
13328;DHT22;6733;51.044;3.746;2022-07-17T07:25:03;19.40;99.90
13328;DHT22;6733;51.044;3.746;2022-07-17T07:27:29;19.80;99.90
13328;DHT22;6733;51.044;3.746;2022-07-17T07:29:56;19.90;99.90
13328;DHT22;6733;51.044;3.746;2022-07-17T07:32:22;19.90;99.90
13328;DHT22;6733;51.044;3.746;2022-07-17T07:34:48;20.20;99.90
13328;DHT22;6733;51.044;3.746;2022-07-17T07:37:14;20.40;99.90
13328;DHT22;6733;51.044;3.746;2022-07-17T07:39:40;20.70;99.90
13328;DHT22;6733;51.044;3.746;2022-07-17T07:42:06;20.60;99.90
13328;DHT22;6733;51.044;3.746;2022-07-17T07:44:33;20.50;99.90
13328;DHT22;6733;51.044;3.746;2022-07-17T07:47:01;20.90;99.90
13328;DHT22;6733;51.044;3.746;2022-07-17T07:49:28;21.00;99.90
13328;DHT22;6733;51.044;3.746;2022-07-17T07:51:54;21.10;99.90
13328;DHT22;6733;51.044;3.746;2022-07-17T07:54:20;21.20;99.90
13328;DHT22;6733;51.044;3.746;2022-07-17T07:56:47;20.90;99.90
13328;DHT22;6733;51.044;3.746;2022-07-17T07:59:13;21.30;99.90
13328;DHT22;6733;51.044;3.746;2022-07-17T08:01:39;21.80;99.90
13328;DHT22;6733;51.044;3.746;2022-07-17T08:04:05;21.60;99.90
13328;DHT22;6733;51.044;3.746;2022-07-17T08:06:31;21.80;99.90
13328;DHT22;6733;51.044;3.746;2022-07-17T08:08:57;22.30;99.90
13328;DHT22;6733;51.044;3.746;2022-07-17T08:11:23;22.20;99.90
13328;DHT22;6733;51.044;3.746;2022-07-17T08:13:50;22.00;99.90
13328;DHT22;6733;51.044;3.746;2022-07-17T08:16:16;22.40;99.90
13328;DHT22;6733;51.044;3.746;2022-07-17T08:18:42;22.10;99.90
13328;DHT22;6733;51.044;3.746;2022-07-17T08:21:09;22.20;99.90
13328;DHT22;6733;51.044;3.746;2022-07-17T08:23:35;22.30;99.90
13328;DHT22;6733;51.044;3.746;2022-07-17T08:26:02;22.30;99.90
13328;DHT22;6733;51.044;3.746;2022-07-17T08:28:28;22.30;99.90
13328;DHT22;6733;51.044;3.746;2022-07-17T08:30:54;22.50;99.90
13328;DHT22;6733;51.044;3.746;2022-07-17T08:33:20;23.20;99.90
13328;DHT22;6733;51.044;3.746;2022-07-17T08:35:47;23.30;99.90
13328;DHT22;6733;51.044;3.746;2022-07-17T08:38:13;23.60;99.90
13328;DHT22;6733;51.044;3.746;2022-07-17T08:40:40;24.10;99.90
13328;DHT22;6733;51.044;3.746;2022-07-17T08:43:09;23.60;99.90
13328;DHT22;6733;51.044;3.746;2022-07-17T08:45:39;23.30;99.90
13328;DHT22;6733;51.044;3.746;2022-07-17T08:48:06;23.30;99.90
13328;DHT22;6733;51.044;3.746;2022-07-17T08:50:35;24.00;99.90
13328;DHT22;6733;51.044;3.746;2022-07-17T08:53:02;24.20;99.90
13328;DHT22;6733;51.044;3.746;2022-07-17T08:55:29;23.60;99.90
13328;DHT22;6733;51.044;3.746;2022-07-17T08:57:55;23.60;99.90
13328;DHT22;6733;51.044;3.746;2022-07-17T09:00:22;23.50;99.90
13328;DHT22;6733;51.044;3.746;2022-07-17T09:03:00;23.20;99.90
13328;DHT22;6733;51.044;3.746;2022-07-17T09:05:32;22.80;99.90
13328;DHT22;6733;51.044;3.746;2022-07-17T09:07:59;23.10;99.90
13328;DHT22;6733;51.044;3.746;2022-07-17T09:10:37;23.80;99.90
13328;DHT22;6733;51.044;3.746;2022-07-17T09:13:26;23.90;99.90
13328;DHT22;6733;51.044;3.746;2022-07-17T09:15:54;23.50;99.90
13328;DHT22;6733;51.044;3.746;2022-07-17T09:18:21;23.80;99.90
13328;DHT22;6733;51.044;3.746;2022-07-17T09:20:53;23.90;99.90
13328;DHT22;6733;51.044;3.746;2022-07-17T09:23:20;24.30;99.90
13328;DHT22;6733;51.044;3.746;2022-07-17T09:25:49;23.70;99.90
13328;DHT22;6733;51.044;3.746;2022-07-17T09:28:16;24.10;99.90
13328;DHT22;6733;51.044;3.746;2022-07-17T09:30:45;24.70;99.90
13328;DHT22;6733;51.044;3.746;2022-07-17T09:33:15;24.50;99.90
13328;DHT22;6733;51.044;3.746;2022-07-17T09:35:46;24.50;99.90
13328;DHT22;6733;51.044;3.746;2022-07-17T09:38:31;24.80;99.90
13328;DHT22;6733;51.044;3.746;2022-07-17T09:41:05;24.80;99.90
13328;DHT22;6733;51.044;3.746;2022-07-17T09:46:14;24.90;99.90
13328;DHT22;6733;51.044;3.746;2022-07-17T09:48:42;25.10;99.90
13328;DHT22;6733;51.044;3.746;2022-07-17T09:51:34;25.10;99.90
13328;DHT22;6733;51.044;3.746;2022-07-17T09:54:04;24.90;99.90
13328;DHT22;6733;51.044;3.746;2022-07-17T09:56:35;25.60;99.90
13328;DHT22;6733;51.044;3.746;2022-07-17T09:59:12;25.30;99.90
13328;DHT22;6733;51.044;3.746;2022-07-17T10:01:40;25.50;99.90
13328;DHT22;6733;51.044;3.746;2022-07-17T10:04:07;25.20;99.90
13328;DHT22;6733;51.044;3.746;2022-07-17T10:06:33;25.10;99.90
13328;DHT22;6733;51.044;3.746;2022-07-17T10:09:00;25.30;99.90
13328;DHT22;6733;51.044;3.746;2022-07-17T10:11:28;25.70;99.90
13328;DHT22;6733;51.044;3.746;2022-07-17T10:14:01;25.30;99.90
13328;DHT22;6733;51.044;3.746;2022-07-17T10:16:33;25.50;99.90
13328;DHT22;6733;51.044;3.746;2022-07-17T10:19:00;25.60;99.90
13328;DHT22;6733;51.044;3.746;2022-07-17T10:21:30;26.10;99.90
13328;DHT22;6733;51.044;3.746;2022-07-17T10:31:59;25.70;99.90
13328;DHT22;6733;51.044;3.746;2022-07-17T10:39:54;25.70;99.90
13328;DHT22;6733;51.044;3.746;2022-07-17T10:45:21;25.60;99.90
13328;DHT22;6733;51.044;3.746;2022-07-17T10:48:07;25.80;99.90
13328;DHT22;6733;51.044;3.746;2022-07-17T10:50:36;26.20;99.90
13328;DHT22;6733;51.044;3.746;2022-07-17T10:55:41;26.30;99.90
13328;DHT22;6733;51.044;3.746;2022-07-17T11:00:54;26.90;98.50
13328;DHT22;6733;51.044;3.746;2022-07-17T11:03:21;26.90;97.90
13328;DHT22;6733;51.044;3.746;2022-07-17T11:05:47;26.90;97.60
13328;DHT22;6733;51.044;3.746;2022-07-17T11:08:14;26.90;97.80
13328;DHT22;6733;51.044;3.746;2022-07-17T11:10:40;26.50;98.20
13328;DHT22;6733;51.044;3.746;2022-07-17T11:13:11;26.30;98.00
13328;DHT22;6733;51.044;3.746;2022-07-17T11:15:46;26.60;98.10
13328;DHT22;6733;51.044;3.746;2022-07-17T11:18:15;26.60;97.80
13328;DHT22;6733;51.044;3.746;2022-07-17T11:20:54;27.00;97.30
13328;DHT22;6733;51.044;3.746;2022-07-17T11:23:23;27.10;97.30
13328;DHT22;6733;51.044;3.746;2022-07-17T11:26:03;27.00;97.40
13328;DHT22;6733;51.044;3.746;2022-07-17T11:28:38;27.20;97.90
13328;DHT22;6733;51.044;3.746;2022-07-17T11:31:20;27.10;96.90
13328;DHT22;6733;51.044;3.746;2022-07-17T11:33:52;27.60;96.40
13328;DHT22;6733;51.044;3.746;2022-07-17T11:38:52;26.90;96.80
13328;DHT22;6733;51.044;3.746;2022-07-17T11:41:19;27.20;96.20
13328;DHT22;6733;51.044;3.746;2022-07-17T11:43:46;27.20;95.30
13328;DHT22;6733;51.044;3.746;2022-07-17T11:46:14;27.10;94.90
13328;DHT22;6733;51.044;3.746;2022-07-17T11:48:43;27.50;94.50
13328;DHT22;6733;51.044;3.746;2022-07-17T11:51:10;27.60;93.60
13328;DHT22;6733;51.044;3.746;2022-07-17T11:53:38;27.70;94.40
13328;DHT22;6733;51.044;3.746;2022-07-17T11:56:06;28.10;94.90
13328;DHT22;6733;51.044;3.746;2022-07-17T11:58:44;28.20;94.40
13328;DHT22;6733;51.044;3.746;2022-07-17T12:01:11;28.20;94.60
13328;DHT22;6733;51.044;3.746;2022-07-17T12:03:38;27.90;94.40
13328;DHT22;6733;51.044;3.746;2022-07-17T12:06:05;27.80;94.10
13328;DHT22;6733;51.044;3.746;2022-07-17T12:08:31;27.70;92.90
13328;DHT22;6733;51.044;3.746;2022-07-17T12:11:06;27.90;92.80
13328;DHT22;6733;51.044;3.746;2022-07-17T12:13:38;27.90;91.90
13328;DHT22;6733;51.044;3.746;2022-07-17T12:16:29;27.90;90.50
13328;DHT22;6733;51.044;3.746;2022-07-17T12:21:22;28.00;88.10
13328;DHT22;6733;51.044;3.746;2022-07-17T12:24:03;28.00;87.80
13328;DHT22;6733;51.044;3.746;2022-07-17T12:26:31;28.50;88.60
13328;DHT22;6733;51.044;3.746;2022-07-17T12:28:57;28.70;88.50
13328;DHT22;6733;51.044;3.746;2022-07-17T12:31:23;29.00;88.50
13328;DHT22;6733;51.044;3.746;2022-07-17T12:33:52;28.80;90.50
13328;DHT22;6733;51.044;3.746;2022-07-17T12:36:20;28.50;91.10
13328;DHT22;6733;51.044;3.746;2022-07-17T12:38:47;28.50;90.80
13328;DHT22;6733;51.044;3.746;2022-07-17T12:41:13;28.70;90.80
13328;DHT22;6733;51.044;3.746;2022-07-17T12:43:39;29.00;90.80
13328;DHT22;6733;51.044;3.746;2022-07-17T12:46:06;28.70;91.00
13328;DHT22;6733;51.044;3.746;2022-07-17T12:48:32;28.20;91.30
13328;DHT22;6733;51.044;3.746;2022-07-17T12:50:58;28.20;91.90
13328;DHT22;6733;51.044;3.746;2022-07-17T12:53:24;28.30;91.90
13328;DHT22;6733;51.044;3.746;2022-07-17T12:55:50;28.60;91.50
13328;DHT22;6733;51.044;3.746;2022-07-17T12:58:17;28.90;91.30
13328;DHT22;6733;51.044;3.746;2022-07-17T13:00:43;28.40;91.10
13328;DHT22;6733;51.044;3.746;2022-07-17T13:03:09;28.20;91.30
13328;DHT22;6733;51.044;3.746;2022-07-17T13:05:35;28.90;90.50
13328;DHT22;6733;51.044;3.746;2022-07-17T13:08:02;28.80;90.50
13328;DHT22;6733;51.044;3.746;2022-07-17T13:10:29;28.80;90.70
13328;DHT22;6733;51.044;3.746;2022-07-17T13:12:56;28.50;91.30
13328;DHT22;6733;51.044;3.746;2022-07-17T13:15:23;28.90;91.40
13328;DHT22;6733;51.044;3.746;2022-07-17T13:17:49;29.10;91.10
13328;DHT22;6733;51.044;3.746;2022-07-17T13:20:16;28.90;90.70
13328;DHT22;6733;51.044;3.746;2022-07-17T13:22:47;28.90;90.90
13328;DHT22;6733;51.044;3.746;2022-07-17T13:25:19;29.10;91.00
13328;DHT22;6733;51.044;3.746;2022-07-17T13:27:46;29.30;90.30
13328;DHT22;6733;51.044;3.746;2022-07-17T13:30:12;29.90;90.00
13328;DHT22;6733;51.044;3.746;2022-07-17T13:32:40;30.10;87.50
13328;DHT22;6733;51.044;3.746;2022-07-17T13:35:07;30.20;87.20
13328;DHT22;6733;51.044;3.746;2022-07-17T13:37:39;29.90;89.20
13328;DHT22;6733;51.044;3.746;2022-07-17T13:40:08;29.40;88.10
13328;DHT22;6733;51.044;3.746;2022-07-17T13:42:35;29.80;88.20
13328;DHT22;6733;51.044;3.746;2022-07-17T13:45:02;30.40;87.50
13328;DHT22;6733;51.044;3.746;2022-07-17T13:47:28;30.10;87.80
13328;DHT22;6733;51.044;3.746;2022-07-17T13:49:55;29.90;86.60
13328;DHT22;6733;51.044;3.746;2022-07-17T13:52:22;30.10;87.20
13328;DHT22;6733;51.044;3.746;2022-07-17T13:54:48;30.10;86.30
13328;DHT22;6733;51.044;3.746;2022-07-17T13:57:14;29.50;86.20
13328;DHT22;6733;51.044;3.746;2022-07-17T13:59:40;29.50;86.60
13328;DHT22;6733;51.044;3.746;2022-07-17T14:02:07;30.50;85.40
13328;DHT22;6733;51.044;3.746;2022-07-17T14:04:34;30.70;84.40
13328;DHT22;6733;51.044;3.746;2022-07-17T14:07:00;31.20;83.40
13328;DHT22;6733;51.044;3.746;2022-07-17T14:09:26;31.20;84.10
13328;DHT22;6733;51.044;3.746;2022-07-17T14:11:53;31.20;82.80
13328;DHT22;6733;51.044;3.746;2022-07-17T14:14:19;31.00;82.80
13328;DHT22;6733;51.044;3.746;2022-07-17T14:16:46;31.30;81.60
13328;DHT22;6733;51.044;3.746;2022-07-17T14:19:12;31.50;80.40
13328;DHT22;6733;51.044;3.746;2022-07-17T14:21:38;30.80;79.60
13328;DHT22;6733;51.044;3.746;2022-07-17T14:24:05;31.20;80.00
13328;DHT22;6733;51.044;3.746;2022-07-17T14:26:32;31.00;81.00
13328;DHT22;6733;51.044;3.746;2022-07-17T14:28:59;31.90;80.00
13328;DHT22;6733;51.044;3.746;2022-07-17T14:31:25;31.90;79.90
13328;DHT22;6733;51.044;3.746;2022-07-17T14:33:51;32.50;78.10
13328;DHT22;6733;51.044;3.746;2022-07-17T14:36:18;32.30;77.30
13328;DHT22;6733;51.044;3.746;2022-07-17T14:38:44;32.60;77.30
13328;DHT22;6733;51.044;3.746;2022-07-17T14:41:10;32.90;76.40
13328;DHT22;6733;51.044;3.746;2022-07-17T14:43:36;32.10;76.20
13328;DHT22;6733;51.044;3.746;2022-07-17T14:46:03;32.50;75.20
13328;DHT22;6733;51.044;3.746;2022-07-17T14:48:29;32.40;75.60
13328;DHT22;6733;51.044;3.746;2022-07-17T14:50:55;32.50;73.80
13328;DHT22;6733;51.044;3.746;2022-07-17T14:53:22;32.00;74.10
13328;DHT22;6733;51.044;3.746;2022-07-17T14:55:51;32.40;71.80
13328;DHT22;6733;51.044;3.746;2022-07-17T14:58:17;32.30;72.00
13328;DHT22;6733;51.044;3.746;2022-07-17T15:00:43;31.90;72.20
13328;DHT22;6733;51.044;3.746;2022-07-17T15:03:10;32.40;72.20
13328;DHT22;6733;51.044;3.746;2022-07-17T15:05:36;32.30;72.10
13328;DHT22;6733;51.044;3.746;2022-07-17T15:08:02;32.40;70.70
13328;DHT22;6733;51.044;3.746;2022-07-17T15:10:28;32.60;71.30
13328;DHT22;6733;51.044;3.746;2022-07-17T15:12:55;33.20;70.20
13328;DHT22;6733;51.044;3.746;2022-07-17T15:15:21;33.40;69.90
13328;DHT22;6733;51.044;3.746;2022-07-17T15:17:47;34.00;69.10
13328;DHT22;6733;51.044;3.746;2022-07-17T15:20:13;33.20;69.40
13328;DHT22;6733;51.044;3.746;2022-07-17T15:22:39;33.00;69.40
13328;DHT22;6733;51.044;3.746;2022-07-17T15:25:06;33.60;68.20
13328;DHT22;6733;51.044;3.746;2022-07-17T15:27:32;33.00;68.40
13328;DHT22;6733;51.044;3.746;2022-07-17T15:29:58;32.70;69.40
13328;DHT22;6733;51.044;3.746;2022-07-17T15:32:24;32.60;69.30
13328;DHT22;6733;51.044;3.746;2022-07-17T15:34:51;32.80;69.80
13328;DHT22;6733;51.044;3.746;2022-07-17T15:37:17;33.00;68.50
13328;DHT22;6733;51.044;3.746;2022-07-17T15:39:45;33.10;68.40
13328;DHT22;6733;51.044;3.746;2022-07-17T15:42:11;32.90;67.90
13328;DHT22;6733;51.044;3.746;2022-07-17T15:44:37;32.30;69.50
13328;DHT22;6733;51.044;3.746;2022-07-17T15:47:03;31.90;70.80
13328;DHT22;6733;51.044;3.746;2022-07-17T15:49:29;31.90;71.40
13328;DHT22;6733;51.044;3.746;2022-07-17T15:51:55;32.60;71.00
13328;DHT22;6733;51.044;3.746;2022-07-17T15:54:21;32.90;70.50
13328;DHT22;6733;51.044;3.746;2022-07-17T15:56:48;33.50;67.70
13328;DHT22;6733;51.044;3.746;2022-07-17T15:59:15;34.10;66.10
13328;DHT22;6733;51.044;3.746;2022-07-17T16:01:42;34.10;66.00
13328;DHT22;6733;51.044;3.746;2022-07-17T16:04:09;33.60;65.50
13328;DHT22;6733;51.044;3.746;2022-07-17T16:06:35;33.60;67.10
13328;DHT22;6733;51.044;3.746;2022-07-17T16:09:01;34.00;64.60
13328;DHT22;6733;51.044;3.746;2022-07-17T16:11:27;34.70;63.30
13328;DHT22;6733;51.044;3.746;2022-07-17T16:13:54;34.90;62.40